Kezdőlap
METAR-TAF:

METAR-TAF

Repülőterek :

Cannes, Franciaország

földrajzi szélesség: 43-33N, földrajzi hosszúság: 006-57E, magasság: 3 m

Jelenlegi meteorológiai megfigyelések

A jelentés 43 perccel ezelõtt készült, 00:30 UTC
Északi szél 4 kt, északnyugati és északkeleti között változik
Hőmérséklet 7°C
Páratartalom 61%
Légköri nyomás 1022 hPa
Látótávolság 10 km, vagy több
felhőtlen 1500 m magasságban, és nincs gomolyfelhõ

METAR: LFMD 050030Z AUTO 35004KT 320V040 CAVOK 07/00 Q1022

Idő: 03:13 (01:13 UTC)


TAF: hiányzik

Meteorológiai megfigyelések és előrejelzések több, mint 4000 repülőtéren (METAR és TAF jelentéseket).

A térképen piros és sárga pontok jelzik az elérhető meteorológiai állomásokat.

Mozgassa az egeret a pont fölött, hogy megjelenjen az állomás neve.

Azután kattintson az időjárási megfigyelések és előrejelzések megtekintéséhez.

A térkép megváltoztatása: kattintson a fekete keresztel jelölt zöld gombra ráközelítéshez, a vonallal jelölt zöld gombra távolításhoz, vagy a zöld nyilakra a szomszédos térképek eléréséhez.


METAR-TAF: